KSPA/SPA METAR and TAF weather

Enter ICAO airport designator
Station Type Date Time Source
KSPA METAR 2020/07/05 02:55 UTC NOAA

KSPA 050255Z AUTO 00000KT 10SM CLR 25/22 A2996 RMK AO2


Station Type Date Time Source
KSPA Decoded METAR 2020/07/05 02:55 UTC NOAA

Spartanburg Memorial, SC, United States (KSPA) 34-55N 081-57W
Jul 04, 2020 - 10:55 PM EDT / 2020.07.05 0255 UTC
Wind: Calm:0
Visibility: 10 mile(s):0
Sky conditions: clear
Temperature: 77 F (25 C)
Dew Point: 71 F (22 C)
Relative Humidity: 83%
Pressure (altimeter): 29.96 in. Hg (1014 hPa)
ob: KSPA 050255Z AUTO 00000KT 10SM CLR 25/22 A2996 RMK AO2
cycle: 3

Station Type Date Time Source
KSPA TAF UTC NOAA

Error!

Example: see airport list